Weather at Butterfield Trail Airport [CLOSED]

Public forecast

Using degrees Fahrenheit for public forecast. Weather courtesy of forecast.io.

Closest aviation weather report (METAR) to Butterfield Trail Airport

Closest report is Dyess Air Force Base, 8.4 nm (15.5 km) SSW. Retrieved 2021/07/24 21:56 UTC (53 minutes ago):

KDYS 242156Z AUTO 14010KT 10SM M 37/16 A2997 RMK AO2 SLP096 T03680163

Closest aviation forecast (TAF) to Butterfield Trail Airport

Closest forecast is Dyess Air Force Base, 8.4 nm (15.5 km) SSW. Retrieved 2021/07/24 22:34 UTC (15 minutes ago):

TAF KDYS 242219Z 2422/2602 17012KT 9999 SCT120 QNH2993INS BECMG 2423/2500 18012KT 9999 SKC QNH2989INS TEMPO 2510/2518 20012KT TX37/2520Z TN23/2512Z LAST NO AMDS AFT 2422 NEXT 2515